createdAt,value
2023-04-27T00:00:58.949Z,102386.69
2023-04-27T00:03:31.130Z,102379.97
2023-04-27T00:06:02.797Z,102390.13
2023-04-27T00:08:34.093Z,102376.13
2023-04-27T00:11:04.966Z,102387.94
2023-04-27T00:13:36.320Z,102385.13
2023-04-27T00:16:10.313Z,102373.13
2023-04-27T00:18:42.089Z,102364.31
2023-04-27T00:21:13.720Z,102365.50
2023-04-27T00:23:45.128Z,102367.84
2023-04-27T00:26:16.339Z,102366.81
2023-04-27T00:28:51.788Z,102359.34
2023-04-27T00:31:23.095Z,102361.06
2023-04-27T00:33:53.910Z,102360.78
2023-04-27T00:36:25.177Z,102355.75
2023-04-27T00:38:56.284Z,102361.06
2023-04-27T00:41:28.298Z,102347.00
2023-04-27T00:43:59.690Z,102352.56
2023-04-27T00:46:32.217Z,102351.06
2023-04-27T00:49:04.410Z,102342.16
2023-04-27T00:51:37.478Z,102338.97
2023-04-27T00:54:08.659Z,102348.09
2023-04-27T00:56:40.130Z,102340.16
2023-04-27T00:59:11.615Z,102326.69
2023-04-27T01:01:43.302Z,102325.66
2023-04-27T01:04:16.619Z,102319.03
2023-04-27T01:06:48.367Z,102319.56
2023-04-27T01:09:21.513Z,102305.94
2023-04-27T01:11:53.931Z,102310.47
2023-04-27T01:14:26.516Z,102314.59
2023-04-27T01:16:57.869Z,102313.34
2023-04-27T01:19:30.310Z,102312.00
2023-04-27T01:22:02.315Z,102304.28
2023-04-27T01:24:33.501Z,102292.72
2023-04-27T01:27:06.587Z,102285.81
2023-04-27T01:29:37.880Z,102284.59
2023-04-27T01:32:09.926Z,102273.50
2023-04-27T01:34:41.675Z,102290.31
2023-04-27T01:37:12.993Z,102274.34
2023-04-27T01:39:44.721Z,102287.00
2023-04-27T01:42:16.135Z,102278.91
2023-04-27T01:44:47.447Z,102282.25
2023-04-27T01:47:19.477Z,102274.66
2023-04-27T01:49:51.297Z,102285.81
2023-04-27T01:52:23.137Z,102278.34
2023-04-27T01:54:54.387Z,102283.19
2023-04-27T01:57:27.089Z,102281.44
2023-04-27T01:59:59.413Z,102267.28
2023-04-27T02:02:30.817Z,102283.22
2023-04-27T02:05:01.614Z,102279.50
2023-04-27T02:07:33.638Z,102282.34
2023-04-27T02:10:05.226Z,102276.72
2023-04-27T02:12:36.733Z,102282.03
2023-04-27T02:15:09.123Z,102277.66
2023-04-27T02:17:41.585Z,102270.75
2023-04-27T02:20:13.892Z,102279.22
2023-04-27T02:22:46.409Z,102274.00
2023-04-27T02:25:17.861Z,102269.38
2023-04-27T02:27:50.901Z,102277.75
2023-04-27T02:30:23.451Z,102266.00
2023-04-27T02:32:55.463Z,102268.97
2023-04-27T02:35:28.365Z,102258.16
2023-04-27T02:38:02.617Z,102255.44
2023-04-27T02:40:33.665Z,102251.81
2023-04-27T02:43:05.681Z,102255.69
2023-04-27T02:45:39.844Z,102251.63
2023-04-27T02:48:11.343Z,102251.78
2023-04-27T02:50:46.650Z,102244.19
2023-04-27T02:53:18.034Z,102232.69
2023-04-27T02:55:52.712Z,102234.16
2023-04-27T02:58:24.178Z,102234.22
2023-04-27T03:00:58.391Z,102234.13
2023-04-27T03:03:29.767Z,102240.56
2023-04-27T03:06:01.072Z,102233.88
2023-04-27T03:08:33.285Z,102227.50
2023-04-27T03:11:05.584Z,102236.94
2023-04-27T03:13:43.213Z,102239.50
2023-04-27T03:16:14.755Z,102245.84
2023-04-27T03:18:46.966Z,102239.31
2023-04-27T03:21:19.303Z,102239.97
2023-04-27T03:23:53.662Z,102243.63
2023-04-27T03:26:27.871Z,102250.38
2023-04-27T03:28:59.129Z,102245.09
2023-04-27T03:31:32.423Z,102252.19
2023-04-27T03:34:03.587Z,102256.00
2023-04-27T03:36:34.354Z,102254.75
2023-04-27T03:39:05.573Z,102261.84
2023-04-27T03:41:38.336Z,102258.41
2023-04-27T03:44:09.614Z,102256.53
2023-04-27T03:46:41.087Z,102249.72
2023-04-27T03:49:12.515Z,102254.16
2023-04-27T03:51:44.469Z,102255.47
2023-04-27T03:54:16.465Z,102257.41
2023-04-27T03:56:47.163Z,102256.06
2023-04-27T03:59:18.402Z,102249.19
2023-04-27T04:01:53.198Z,102253.88
2023-04-27T04:04:24.318Z,102260.72
2023-04-27T04:07:07.775Z,102267.19
2023-04-27T04:09:39.553Z,102265.16
2023-04-27T04:12:10.947Z,102267.22
2023-04-27T04:14:44.296Z,102256.84
2023-04-27T04:17:16.974Z,102263.94
2023-04-27T04:19:50.653Z,102264.47
2023-04-27T04:22:21.554Z,102261.47
2023-04-27T04:24:54.090Z,102262.75
2023-04-27T04:27:25.658Z,102262.00
2023-04-27T04:29:57.316Z,102271.06
2023-04-27T04:32:32.716Z,102270.19
2023-04-27T04:35:05.292Z,102281.13
2023-04-27T04:37:37.880Z,102279.94
2023-04-27T04:40:10.512Z,102277.13
2023-04-27T04:42:42.871Z,102275.81
2023-04-27T04:45:14.512Z,102279.59
2023-04-27T04:47:45.024Z,102286.13
2023-04-27T04:50:16.563Z,102290.94
2023-04-27T04:52:48.239Z,102285.72
2023-04-27T04:55:19.846Z,102290.59
2023-04-27T04:57:51.363Z,102291.38
2023-04-27T05:00:22.895Z,102299.41
2023-04-27T05:02:54.934Z,102299.56
2023-04-27T05:05:26.546Z,102299.16
2023-04-27T05:07:58.242Z,102302.97
2023-04-27T05:10:29.390Z,102305.50
2023-04-27T05:13:00.531Z,102294.50
2023-04-27T05:15:32.132Z,102300.16
2023-04-27T05:18:03.322Z,102295.16
2023-04-27T05:20:37.558Z,102291.94
2023-04-27T05:23:08.859Z,102290.88
2023-04-27T05:25:43.328Z,102296.19
2023-04-27T05:28:15.004Z,102297.81
2023-04-27T05:30:46.367Z,102304.84
2023-04-27T05:33:17.746Z,102299.63
2023-04-27T05:35:49.242Z,102301.22
2023-04-27T05:38:20.490Z,102310.59
2023-04-27T05:40:58.227Z,102320.06
2023-04-27T05:43:29.700Z,102322.34
2023-04-27T05:46:00.798Z,102318.53
2023-04-27T05:48:32.262Z,102314.81
2023-04-27T05:51:03.418Z,102325.81
2023-04-27T05:53:37.244Z,102323.56
2023-04-27T05:56:08.985Z,102325.25
2023-04-27T05:58:40.161Z,102326.88
2023-04-27T06:01:12.042Z,102323.34
2023-04-27T06:03:43.406Z,102323.47
2023-04-27T06:06:14.838Z,102343.91
2023-04-27T06:08:45.844Z,102338.84
2023-04-27T06:11:17.963Z,102349.59
2023-04-27T06:13:49.437Z,102339.06
2023-04-27T06:16:23.637Z,102338.94
2023-04-27T06:18:54.890Z,102348.16
2023-04-27T06:21:26.225Z,102343.75
2023-04-27T06:23:57.274Z,102347.56
2023-04-27T06:26:29.976Z,102346.84
2023-04-27T06:29:01.364Z,102359.34
2023-04-27T06:31:33.248Z,102366.00
2023-04-27T06:34:05.393Z,102371.72
2023-04-27T06:36:36.494Z,102369.13
2023-04-27T06:39:08.136Z,102377.28
2023-04-27T06:41:39.561Z,102378.53
2023-04-27T06:44:22.695Z,102378.84
2023-04-27T06:46:53.854Z,102378.25
2023-04-27T06:49:25.249Z,102382.22
2023-04-27T06:51:56.478Z,102401.78
2023-04-27T06:54:27.997Z,102400.03
2023-04-27T06:56:59.660Z,102392.56
2023-04-27T06:59:31.014Z,102406.69
2023-04-27T07:02:02.976Z,102406.34
2023-04-27T07:04:34.730Z,102415.56
2023-04-27T07:07:06.644Z,102416.13
2023-04-27T07:09:39.103Z,102422.59
2023-04-27T07:12:10.440Z,102418.34
2023-04-27T07:14:41.725Z,102420.19
2023-04-27T07:17:12.919Z,102417.78
2023-04-27T07:19:45.266Z,102432.34
2023-04-27T07:22:17.502Z,102427.75
2023-04-27T07:24:50.006Z,102439.78
2023-04-27T07:27:22.022Z,102440.06
2023-04-27T07:29:53.204Z,102449.88
2023-04-27T07:32:24.997Z,102451.38
2023-04-27T07:34:58.429Z,102464.94
2023-04-27T07:37:30.335Z,102459.44
2023-04-27T07:40:03.761Z,102461.56
2023-04-27T07:42:35.518Z,102470.44
2023-04-27T07:45:07.343Z,102478.56
2023-04-27T07:47:39.270Z,102475.06
2023-04-27T07:50:11.031Z,102483.81
2023-04-27T07:52:42.271Z,102487.38
2023-04-27T07:55:13.488Z,102483.03
2023-04-27T07:57:44.768Z,102486.63
2023-04-27T08:00:17.602Z,102486.22
2023-04-27T08:02:49.189Z,102488.47
2023-04-27T08:05:21.366Z,102492.59
2023-04-27T08:07:55.093Z,102497.19
2023-04-27T08:10:27.099Z,102480.16
2023-04-27T08:12:58.366Z,102491.81
2023-04-27T08:15:30.008Z,102495.97
2023-04-27T08:18:00.911Z,102495.34
2023-04-27T08:20:32.288Z,102492.25
2023-04-27T08:23:03.461Z,102497.66
2023-04-27T08:25:34.866Z,102494.75
2023-04-27T08:28:06.606Z,102499.91
2023-04-27T08:30:37.966Z,102503.03
2023-04-27T08:33:10.043Z,102511.34
2023-04-27T08:35:40.478Z,102503.47
2023-04-27T08:38:16.376Z,102506.78
2023-04-27T08:40:48.428Z,102510.25
2023-04-27T08:43:20.142Z,102521.84
2023-04-27T08:45:58.063Z,102522.69
2023-04-27T08:48:29.211Z,102527.09
2023-04-27T08:51:06.217Z,102525.19
2023-04-27T08:53:37.811Z,102528.91
2023-04-27T08:56:09.562Z,102537.25
2023-04-27T08:58:40.819Z,102535.91
2023-04-27T09:01:12.239Z,102546.47
2023-04-27T09:03:43.335Z,102548.19
2023-04-27T09:06:15.847Z,102555.69
2023-04-27T09:08:51.394Z,102557.06
2023-04-27T09:11:37.405Z,102555.56
2023-04-27T09:14:22.804Z,102559.53
2023-04-27T09:17:01.562Z,102564.22
2023-04-27T09:19:33.646Z,102561.53
2023-04-27T09:22:15.257Z,102564.94
2023-04-27T09:24:56.102Z,102575.69
2023-04-27T09:27:27.552Z,102573.34
2023-04-27T09:29:59.242Z,102579.03
2023-04-27T09:32:30.226Z,102577.03
2023-04-27T09:35:01.446Z,102568.25
2023-04-27T09:37:34.017Z,102556.69
2023-04-27T09:40:06.031Z,102559.75
2023-04-27T09:42:37.462Z,102553.75
2023-04-27T09:45:10.152Z,102553.06
2023-04-27T09:47:41.944Z,102551.13
2023-04-27T09:50:17.012Z,102554.22
2023-04-27T09:52:49.347Z,102558.44
2023-04-27T09:55:51.693Z,102559.53
2023-04-27T09:58:40.753Z,102562.72
2023-04-27T10:01:34.290Z,102566.38
2023-04-27T10:04:46.187Z,102564.94
2023-04-27T10:07:17.958Z,102580.38
2023-04-27T10:09:55.860Z,102570.88
2023-04-27T10:12:35.417Z,102577.09
2023-04-27T10:15:16.817Z,102581.66
2023-04-27T10:18:00.261Z,102581.22
2023-04-27T10:20:38.181Z,102579.41
2023-04-27T10:23:09.640Z,102582.53
2023-04-27T10:25:42.801Z,102578.69
2023-04-27T10:28:24.297Z,102583.50
2023-04-27T10:30:56.465Z,102580.53
2023-04-27T10:33:27.590Z,102574.28
2023-04-27T10:36:00.643Z,102570.06
2023-04-27T10:38:34.117Z,102564.72
2023-04-27T10:41:08.930Z,102564.66
2023-04-27T10:43:40.405Z,102567.50
2023-04-27T10:46:16.811Z,102560.84
2023-04-27T10:48:48.281Z,102566.72
2023-04-27T10:51:19.644Z,102569.94
2023-04-27T10:53:55.209Z,102582.06
2023-04-27T10:56:46.448Z,102585.97
2023-04-27T10:59:17.787Z,102581.81
2023-04-27T11:01:52.912Z,102577.34
2023-04-27T11:04:24.231Z,102578.63
2023-04-27T11:06:56.419Z,102579.16
2023-04-27T11:09:29.987Z,102578.53
2023-04-27T11:12:01.014Z,102563.66
2023-04-27T11:14:32.292Z,102565.25
2023-04-27T11:17:04.041Z,102560.63
2023-04-27T11:19:35.757Z,102564.03
2023-04-27T11:22:08.473Z,102567.16
2023-04-27T11:24:39.628Z,102550.31
2023-04-27T11:27:11.361Z,102558.22
2023-04-27T11:29:43.159Z,102563.25
2023-04-27T11:32:24.821Z,102555.13
2023-04-27T11:34:58.413Z,102552.22
2023-04-27T11:37:31.328Z,102551.72
2023-04-27T11:40:03.541Z,102553.00
2023-04-27T11:42:35.680Z,102553.13
2023-04-27T11:45:08.281Z,102550.44
2023-04-27T11:47:40.697Z,102557.84
2023-04-27T11:50:14.746Z,102564.50
2023-04-27T11:52:51.386Z,102570.09
2023-04-27T11:55:26.349Z,102565.88
2023-04-27T11:58:01.306Z,102567.81
2023-04-27T12:00:33.123Z,102562.03
2023-04-27T12:03:06.011Z,102559.41
2023-04-27T12:05:38.317Z,102557.63
2023-04-27T12:08:09.796Z,102556.38
2023-04-27T12:10:41.510Z,102571.25
2023-04-27T12:13:13.887Z,102581.97
2023-04-27T12:15:45.686Z,102571.66
2023-04-27T12:18:17.021Z,102575.78
2023-04-27T12:20:48.959Z,102579.69
2023-04-27T12:23:20.243Z,102578.00
2023-04-27T12:25:51.602Z,102587.84
2023-04-27T12:28:23.323Z,102590.06
2023-04-27T12:30:55.004Z,102592.19
2023-04-27T12:33:27.978Z,102592.00
2023-04-27T12:35:59.292Z,102596.81
2023-04-27T12:38:30.682Z,102594.19
2023-04-27T12:41:04.605Z,102590.41
2023-04-27T12:43:37.873Z,102592.34
2023-04-27T12:46:10.250Z,102584.19
2023-04-27T12:48:41.817Z,102589.38
2023-04-27T12:51:14.621Z,102583.16
2023-04-27T12:53:45.925Z,102579.00
2023-04-27T12:56:17.653Z,102586.41
2023-04-27T12:58:48.859Z,102562.03
2023-04-27T13:01:22.973Z,102577.13
2023-04-27T13:03:55.786Z,102571.16
2023-04-27T13:06:28.302Z,102573.03
2023-04-27T13:09:00.237Z,102581.25
2023-04-27T13:11:31.225Z,102589.88
2023-04-27T13:14:03.394Z,102588.78
2023-04-27T13:16:34.765Z,102591.78
2023-04-27T13:19:06.334Z,102588.78
2023-04-27T13:21:37.650Z,102571.88
2023-04-27T13:24:09.313Z,102594.72
2023-04-27T13:26:40.764Z,102607.41
2023-04-27T13:29:12.456Z,102606.41
2023-04-27T13:31:43.980Z,102597.97
2023-04-27T13:34:16.373Z,102580.94
2023-04-27T13:36:49.553Z,102587.84
2023-04-27T13:39:22.812Z,102593.38
2023-04-27T13:41:54.443Z,102593.50
2023-04-27T13:44:27.271Z,102598.06
2023-04-27T13:46:59.256Z,102598.75
2023-04-27T13:49:30.468Z,102594.41
2023-04-27T13:52:02.666Z,102594.72
2023-04-27T13:54:33.895Z,102591.53
2023-04-27T13:57:05.455Z,102592.31
2023-04-27T13:59:36.833Z,102591.31
2023-04-27T14:02:08.056Z,102573.69
2023-04-27T14:04:39.195Z,102578.91
2023-04-27T14:07:10.624Z,102579.03
2023-04-27T14:09:41.721Z,102573.28
2023-04-27T14:12:13.430Z,102573.28
2023-04-27T14:14:44.692Z,102579.44
2023-04-27T14:17:16.383Z,102578.19
2023-04-27T14:19:47.874Z,102584.31
2023-04-27T14:22:19.174Z,102582.91
2023-04-27T14:24:50.747Z,102571.31
2023-04-27T14:27:21.807Z,102562.63
2023-04-27T14:29:52.962Z,102564.66
2023-04-27T14:32:24.913Z,102559.09
2023-04-27T14:34:56.666Z,102552.78
2023-04-27T14:37:28.323Z,102541.66
2023-04-27T14:39:59.804Z,102540.88
2023-04-27T14:42:33.699Z,102533.00
2023-04-27T14:45:05.222Z,102528.16
2023-04-27T14:47:36.574Z,102541.28
2023-04-27T14:50:08.839Z,102534.88
2023-04-27T14:52:40.487Z,102538.09
2023-04-27T14:55:15.058Z,102529.19
2023-04-27T14:57:46.662Z,102530.91
2023-04-27T15:00:18.454Z,102533.13
2023-04-27T15:02:49.382Z,102525.31
2023-04-27T15:05:21.056Z,102513.50
2023-04-27T15:07:52.962Z,102512.47
2023-04-27T15:10:24.337Z,102518.53
2023-04-27T15:12:56.001Z,102499.31
2023-04-27T15:15:27.446Z,102516.25
2023-04-27T15:17:58.831Z,102522.91
2023-04-27T15:20:30.367Z,102518.88
2023-04-27T15:23:01.906Z,102527.53
2023-04-27T15:25:33.322Z,102524.00
2023-04-27T15:28:05.148Z,102524.88
2023-04-27T15:30:39.578Z,102526.44
2023-04-27T15:33:11.381Z,102533.16
2023-04-27T15:35:43.649Z,102547.00
2023-04-27T15:38:16.965Z,102546.94
2023-04-27T15:40:48.314Z,102541.59
2023-04-27T15:43:19.820Z,102537.31
2023-04-27T15:45:51.435Z,102532.59
2023-04-27T15:48:22.659Z,102532.81
2023-04-27T15:50:54.615Z,102525.13
2023-04-27T15:53:25.818Z,102528.53
2023-04-27T15:55:56.998Z,102530.56
2023-04-27T15:58:28.504Z,102532.28
2023-04-27T16:01:01.607Z,102533.22
2023-04-27T16:03:36.357Z,102523.34
2023-04-27T16:06:08.319Z,102526.28
2023-04-27T16:08:40.026Z,102528.63
2023-04-27T16:11:11.442Z,102533.22
2023-04-27T16:13:43.014Z,102535.97
2023-04-27T16:16:14.157Z,102540.00
2023-04-27T16:18:45.665Z,102541.81
2023-04-27T16:21:16.962Z,102536.75
2023-04-27T16:23:48.744Z,102548.66
2023-04-27T16:26:20.058Z,102542.88
2023-04-27T16:28:51.409Z,102546.06
2023-04-27T16:31:23.117Z,102543.28
2023-04-27T16:33:53.984Z,102554.13
2023-04-27T16:36:26.432Z,102559.09
2023-04-27T16:38:57.806Z,102550.00
2023-04-27T16:41:29.350Z,102564.03
2023-04-27T16:44:01.088Z,102560.19
2023-04-27T16:46:32.460Z,102541.47
2023-04-27T16:49:04.041Z,102544.47
2023-04-27T16:51:35.722Z,102543.28
2023-04-27T16:54:06.693Z,102548.03
2023-04-27T16:56:38.714Z,102543.13
2023-04-27T16:59:13.786Z,102538.78
2023-04-27T17:01:45.743Z,102530.75
2023-04-27T17:04:17.404Z,102541.63
2023-04-27T17:06:49.995Z,102541.47
2023-04-27T17:09:21.541Z,102541.16
2023-04-27T17:11:53.006Z,102545.56
2023-04-27T17:14:25.933Z,102543.56
2023-04-27T17:16:56.844Z,102545.19
2023-04-27T17:19:30.047Z,102541.94
2023-04-27T17:22:01.522Z,102541.44
2023-04-27T17:24:34.197Z,102548.63
2023-04-27T17:27:06.160Z,102550.91
2023-04-27T17:29:37.889Z,102554.59
2023-04-27T17:32:10.660Z,102550.13
2023-04-27T17:34:43.085Z,102555.13
2023-04-27T17:37:16.277Z,102555.13
2023-04-27T17:39:48.501Z,102546.59
2023-04-27T17:42:20.316Z,102556.59
2023-04-27T17:44:51.800Z,102561.56
2023-04-27T17:47:26.697Z,102561.50
2023-04-27T17:49:58.280Z,102568.69
2023-04-27T17:52:29.506Z,102565.69
2023-04-27T17:55:01.123Z,102567.22
2023-04-27T17:57:35.142Z,102572.94
2023-04-27T18:00:07.882Z,102569.47
2023-04-27T18:02:40.765Z,102577.31
2023-04-27T18:05:12.604Z,102576.53
2023-04-27T18:07:43.461Z,102579.69
2023-04-27T18:10:15.161Z,102583.50
2023-04-27T18:12:46.702Z,102584.63
2023-04-27T18:15:18.118Z,102587.34
2023-04-27T18:17:50.368Z,102593.25
2023-04-27T18:20:23.410Z,102585.38
2023-04-27T18:22:54.919Z,102583.75
2023-04-27T18:25:27.128Z,102587.09
2023-04-27T18:27:58.594Z,102589.56
2023-04-27T18:30:30.383Z,102593.13
2023-04-27T18:33:02.236Z,102595.06
2023-04-27T18:35:33.601Z,102594.06
2023-04-27T18:38:05.801Z,102598.13
2023-04-27T18:40:37.840Z,102594.44
2023-04-27T18:43:10.284Z,102590.75
2023-04-27T18:45:41.518Z,102584.31
2023-04-27T18:48:13.021Z,102584.34
2023-04-27T18:50:44.372Z,102579.00
2023-04-27T18:53:16.056Z,102583.28
2023-04-27T18:55:47.245Z,102579.25
2023-04-27T18:58:18.660Z,102593.25
2023-04-27T19:00:50.320Z,102595.63
2023-04-27T19:03:21.952Z,102583.38
2023-04-27T19:05:53.933Z,102582.22
2023-04-27T19:08:25.407Z,102584.09
2023-04-27T19:10:57.873Z,102585.69
2023-04-27T19:13:30.013Z,102576.22
2023-04-27T19:16:02.118Z,102571.75
2023-04-27T19:18:33.793Z,102579.91
2023-04-27T19:21:05.302Z,102586.97
2023-04-27T19:23:37.215Z,102579.06
2023-04-27T19:26:13.725Z,102588.03
2023-04-27T19:28:45.685Z,102595.06
2023-04-27T19:31:17.083Z,102592.53
2023-04-27T19:36:26.304Z,102585.66
2023-04-27T19:38:57.626Z,102584.97
2023-04-27T19:41:29.110Z,102589.38
2023-04-27T19:44:00.178Z,102586.34
2023-04-27T19:46:32.549Z,102579.63
2023-04-27T19:49:03.642Z,102589.94
2023-04-27T19:51:35.587Z,102591.41
2023-04-27T19:54:06.725Z,102590.72
2023-04-27T19:56:37.839Z,102584.41
2023-04-27T19:59:09.253Z,102577.41
2023-04-27T20:01:41.320Z,102584.31
2023-04-27T20:04:13.355Z,102588.44
2023-04-27T20:06:44.850Z,102593.34
2023-04-27T20:09:16.512Z,102597.78
2023-04-27T20:11:48.319Z,102596.81
2023-04-27T20:14:19.797Z,102600.72
2023-04-27T20:16:52.478Z,102597.53
2023-04-27T20:19:24.531Z,102597.69
2023-04-27T20:21:55.458Z,102594.91
2023-04-27T20:24:26.533Z,102597.91
2023-04-27T20:26:58.127Z,102601.06
2023-04-27T20:29:29.655Z,102608.16
2023-04-27T20:32:01.068Z,102600.91
2023-04-27T20:34:33.095Z,102600.84
2023-04-27T20:37:05.929Z,102599.78
2023-04-27T20:39:37.939Z,102597.41
2023-04-27T20:42:09.080Z,102601.88
2023-04-27T20:44:40.877Z,102606.31
2023-04-27T20:47:12.437Z,102606.38
2023-04-27T20:49:44.185Z,102612.41
2023-04-27T20:52:15.500Z,102614.63
2023-04-27T20:54:46.824Z,102615.50
2023-04-27T20:57:17.860Z,102598.44
2023-04-27T20:59:49.404Z,102594.50
2023-04-27T21:02:21.747Z,102598.56
2023-04-27T21:04:53.849Z,102597.72
2023-04-27T21:07:25.186Z,102594.84
2023-04-27T21:09:56.251Z,102587.69
2023-04-27T21:12:28.306Z,102593.81
2023-04-27T21:15:00.164Z,102610.28
2023-04-27T21:17:35.528Z,102598.38
2023-04-27T21:20:06.950Z,102592.88
2023-04-27T21:22:38.445Z,102596.00
2023-04-27T21:25:10.076Z,102594.16
2023-04-27T21:27:42.204Z,102600.88
2023-04-27T21:30:13.824Z,102603.03
2023-04-27T21:32:45.826Z,102595.88
2023-04-27T21:35:16.701Z,102588.25
2023-04-27T21:37:50.246Z,102591.84
2023-04-27T21:40:22.750Z,102585.66
2023-04-27T21:42:57.369Z,102586.13
2023-04-27T21:45:28.666Z,102584.38
2023-04-27T21:48:00.237Z,102589.22
2023-04-27T21:50:32.973Z,102584.91
2023-04-27T21:53:04.359Z,102576.81
2023-04-27T21:55:35.601Z,102591.06
2023-04-27T21:58:07.529Z,102588.78
2023-04-27T22:00:39.094Z,102581.81
2023-04-27T22:03:10.432Z,102577.31
2023-04-27T22:05:42.247Z,102573.75
2023-04-27T22:08:13.736Z,102578.97
2023-04-27T22:10:45.132Z,102578.63
2023-04-27T22:13:19.259Z,102572.25
2023-04-27T22:15:51.001Z,102570.25
2023-04-27T22:18:22.494Z,102559.22
2023-04-27T22:20:55.876Z,102555.31
2023-04-27T22:23:27.941Z,102550.78
2023-04-27T22:26:00.342Z,102557.69
2023-04-27T22:28:32.495Z,102559.53
2023-04-27T22:31:05.150Z,102555.50
2023-04-27T22:33:36.417Z,102555.19
2023-04-27T22:36:08.098Z,102554.88
2023-04-27T22:38:38.764Z,102560.72
2023-04-27T22:41:10.960Z,102556.84
2023-04-27T22:43:42.710Z,102548.94
2023-04-27T22:46:14.190Z,102540.75
2023-04-27T22:48:46.520Z,102547.34
2023-04-27T22:51:18.515Z,102548.75
2023-04-27T22:53:50.661Z,102552.72
2023-04-27T22:56:22.746Z,102540.13
2023-04-27T22:58:53.506Z,102544.75
2023-04-27T23:01:25.106Z,102544.69
2023-04-27T23:03:56.413Z,102539.72
2023-04-27T23:06:29.769Z,102526.69
2023-04-27T23:09:01.195Z,102527.84
2023-04-27T23:11:32.564Z,102526.31
2023-04-27T23:14:04.860Z,102527.56
2023-04-27T23:16:37.206Z,102523.88
2023-04-27T23:19:08.784Z,102522.28
2023-04-27T23:21:40.472Z,102517.25
2023-04-27T23:24:11.945Z,102512.84
2023-04-27T23:26:43.227Z,102514.19
2023-04-27T23:29:14.579Z,102518.47
2023-04-27T23:31:45.986Z,102515.41
2023-04-27T23:34:18.146Z,102516.16
2023-04-27T23:36:49.697Z,102503.25
2023-04-27T23:39:21.242Z,102511.88
2023-04-27T23:41:52.352Z,102511.66
2023-04-27T23:44:23.555Z,102511.84
2023-04-27T23:46:54.919Z,102510.81
2023-04-27T23:49:26.198Z,102503.06
2023-04-27T23:51:58.084Z,102484.81
2023-04-27T23:54:32.900Z,102495.69
2023-04-27T23:57:05.620Z,102497.41
2023-04-27T23:59:39.915Z,102481.66
